sensor_id;sensor_type;location;lat;lon;timestamp;P1;durP1;ratioP1;P2;durP2;ratioP2
3815;SDS011;1923;48.154;11.536;2024-01-06T00:01:32;22.53;;;10.33;;
3815;SDS011;1923;48.154;11.536;2024-01-06T00:04:00;15.50;;;9.40;;
3815;SDS011;1923;48.154;11.536;2024-01-06T00:06:28;19.63;;;9.43;;
3815;SDS011;1923;48.154;11.536;2024-01-06T00:08:56;17.17;;;8.83;;
3815;SDS011;1923;48.154;11.536;2024-01-06T00:11:25;18.80;;;9.70;;
3815;SDS011;1923;48.154;11.536;2024-01-06T00:13:54;18.60;;;9.47;;
3815;SDS011;1923;48.154;11.536;2024-01-06T00:16:22;17.90;;;9.60;;
3815;SDS011;1923;48.154;11.536;2024-01-06T00:18:54;21.30;;;10.60;;
3815;SDS011;1923;48.154;11.536;2024-01-06T00:21:22;15.73;;;9.30;;
3815;SDS011;1923;48.154;11.536;2024-01-06T00:23:50;18.67;;;10.33;;
3815;SDS011;1923;48.154;11.536;2024-01-06T00:26:19;20.53;;;9.87;;
3815;SDS011;1923;48.154;11.536;2024-01-06T00:28:48;17.73;;;9.50;;
3815;SDS011;1923;48.154;11.536;2024-01-06T00:31:16;19.40;;;9.40;;
3815;SDS011;1923;48.154;11.536;2024-01-06T00:33:45;20.37;;;10.67;;
3815;SDS011;1923;48.154;11.536;2024-01-06T00:36:14;19.70;;;10.33;;
3815;SDS011;1923;48.154;11.536;2024-01-06T00:38:42;20.13;;;10.20;;
3815;SDS011;1923;48.154;11.536;2024-01-06T00:41:10;22.10;;;10.43;;
3815;SDS011;1923;48.154;11.536;2024-01-06T00:43:38;26.50;;;11.37;;
3815;SDS011;1923;48.154;11.536;2024-01-06T00:46:07;20.80;;;9.70;;
3815;SDS011;1923;48.154;11.536;2024-01-06T00:48:36;21.83;;;9.93;;
3815;SDS011;1923;48.154;11.536;2024-01-06T00:51:04;22.30;;;9.40;;
3815;SDS011;1923;48.154;11.536;2024-01-06T00:53:32;19.27;;;9.23;;
3815;SDS011;1923;48.154;11.536;2024-01-06T00:56:00;16.37;;;9.43;;
3815;SDS011;1923;48.154;11.536;2024-01-06T00:58:29;17.80;;;9.83;;
3815;SDS011;1923;48.154;11.536;2024-01-06T01:00:57;18.93;;;9.80;;
3815;SDS011;1923;48.154;11.536;2024-01-06T01:03:26;16.93;;;8.27;;
3815;SDS011;1923;48.154;11.536;2024-01-06T01:05:54;17.57;;;9.37;;
3815;SDS011;1923;48.154;11.536;2024-01-06T01:08:22;15.23;;;9.00;;
3815;SDS011;1923;48.154;11.536;2024-01-06T01:10:51;22.10;;;8.77;;
3815;SDS011;1923;48.154;11.536;2024-01-06T01:13:19;16.00;;;7.83;;
3815;SDS011;1923;48.154;11.536;2024-01-06T01:15:47;17.57;;;7.93;;
3815;SDS011;1923;48.154;11.536;2024-01-06T01:18:15;16.73;;;8.53;;
3815;SDS011;1923;48.154;11.536;2024-01-06T01:20:45;14.57;;;7.77;;
3815;SDS011;1923;48.154;11.536;2024-01-06T01:23:13;13.03;;;7.13;;
3815;SDS011;1923;48.154;11.536;2024-01-06T01:25:41;15.80;;;7.47;;
3815;SDS011;1923;48.154;11.536;2024-01-06T01:28:09;12.77;;;7.43;;
3815;SDS011;1923;48.154;11.536;2024-01-06T01:30:37;15.30;;;7.53;;
3815;SDS011;1923;48.154;11.536;2024-01-06T01:33:05;16.40;;;8.33;;
3815;SDS011;1923;48.154;11.536;2024-01-06T01:35:33;17.37;;;8.20;;
3815;SDS011;1923;48.154;11.536;2024-01-06T01:38:03;13.13;;;6.80;;
3815;SDS011;1923;48.154;11.536;2024-01-06T01:40:31;15.80;;;7.97;;
3815;SDS011;1923;48.154;11.536;2024-01-06T01:42:59;15.23;;;7.00;;
3815;SDS011;1923;48.154;11.536;2024-01-06T01:45:27;12.07;;;6.53;;
3815;SDS011;1923;48.154;11.536;2024-01-06T01:47:55;11.40;;;6.60;;
3815;SDS011;1923;48.154;11.536;2024-01-06T01:50:23;13.83;;;7.50;;
3815;SDS011;1923;48.154;11.536;2024-01-06T01:52:54;13.30;;;5.80;;
3815;SDS011;1923;48.154;11.536;2024-01-06T01:55:23;12.37;;;6.23;;
3815;SDS011;1923;48.154;11.536;2024-01-06T01:57:52;9.50;;;6.17;;
3815;SDS011;1923;48.154;11.536;2024-01-06T02:00:20;12.67;;;6.23;;
3815;SDS011;1923;48.154;11.536;2024-01-06T02:02:52;9.03;;;5.80;;
3815;SDS011;1923;48.154;11.536;2024-01-06T02:05:20;9.60;;;5.53;;
3815;SDS011;1923;48.154;11.536;2024-01-06T02:07:48;10.30;;;5.33;;
3815;SDS011;1923;48.154;11.536;2024-01-06T02:10:18;10.13;;;5.60;;
3815;SDS011;1923;48.154;11.536;2024-01-06T02:12:47;12.40;;;6.37;;
3815;SDS011;1923;48.154;11.536;2024-01-06T02:15:18;13.50;;;7.20;;
3815;SDS011;1923;48.154;11.536;2024-01-06T02:17:46;11.80;;;6.90;;
3815;SDS011;1923;48.154;11.536;2024-01-06T02:20:14;15.40;;;7.40;;
3815;SDS011;1923;48.154;11.536;2024-01-06T02:22:47;14.73;;;7.40;;
3815;SDS011;1923;48.154;11.536;2024-01-06T02:25:15;14.70;;;8.03;;
3815;SDS011;1923;48.154;11.536;2024-01-06T02:27:45;14.00;;;6.77;;
3815;SDS011;1923;48.154;11.536;2024-01-06T02:30:13;14.30;;;7.10;;
3815;SDS011;1923;48.154;11.536;2024-01-06T02:32:42;15.33;;;8.00;;
3815;SDS011;1923;48.154;11.536;2024-01-06T02:35:10;15.07;;;7.90;;
3815;SDS011;1923;48.154;11.536;2024-01-06T02:37:38;13.70;;;7.60;;
3815;SDS011;1923;48.154;11.536;2024-01-06T02:40:08;16.23;;;7.33;;
3815;SDS011;1923;48.154;11.536;2024-01-06T02:42:37;13.30;;;7.33;;
3815;SDS011;1923;48.154;11.536;2024-01-06T02:45:06;16.70;;;7.93;;
3815;SDS011;1923;48.154;11.536;2024-01-06T02:47:35;20.13;;;9.57;;
3815;SDS011;1923;48.154;11.536;2024-01-06T02:50:04;18.50;;;8.07;;
3815;SDS011;1923;48.154;11.536;2024-01-06T02:52:32;21.73;;;8.57;;
3815;SDS011;1923;48.154;11.536;2024-01-06T02:55:01;19.30;;;9.23;;
3815;SDS011;1923;48.154;11.536;2024-01-06T02:57:30;20.03;;;9.33;;
3815;SDS011;1923;48.154;11.536;2024-01-06T02:59:58;22.07;;;10.70;;
3815;SDS011;1923;48.154;11.536;2024-01-06T03:02:27;18.90;;;9.23;;
3815;SDS011;1923;48.154;11.536;2024-01-06T03:04:55;21.00;;;10.00;;
3815;SDS011;1923;48.154;11.536;2024-01-06T03:07:23;20.50;;;10.10;;
3815;SDS011;1923;48.154;11.536;2024-01-06T03:09:51;15.10;;;8.37;;
3815;SDS011;1923;48.154;11.536;2024-01-06T03:12:19;17.50;;;8.90;;
3815;SDS011;1923;48.154;11.536;2024-01-06T03:14:48;13.87;;;7.30;;
3815;SDS011;1923;48.154;11.536;2024-01-06T03:17:17;13.47;;;7.33;;
3815;SDS011;1923;48.154;11.536;2024-01-06T03:19:45;14.37;;;8.40;;
3815;SDS011;1923;48.154;11.536;2024-01-06T03:22:13;17.40;;;8.23;;
3815;SDS011;1923;48.154;11.536;2024-01-06T03:24:42;15.83;;;7.53;;
3815;SDS011;1923;48.154;11.536;2024-01-06T03:27:10;16.03;;;7.57;;
3815;SDS011;1923;48.154;11.536;2024-01-06T03:29:39;15.70;;;8.17;;
3815;SDS011;1923;48.154;11.536;2024-01-06T03:32:08;12.57;;;6.13;;
3815;SDS011;1923;48.154;11.536;2024-01-06T03:34:36;11.63;;;6.50;;
3815;SDS011;1923;48.154;11.536;2024-01-06T03:37:05;15.50;;;7.60;;
3815;SDS011;1923;48.154;11.536;2024-01-06T03:39:33;16.97;;;6.90;;
3815;SDS011;1923;48.154;11.536;2024-01-06T03:42:01;14.23;;;6.97;;
3815;SDS011;1923;48.154;11.536;2024-01-06T03:44:29;14.73;;;7.30;;
3815;SDS011;1923;48.154;11.536;2024-01-06T03:47:00;10.37;;;6.23;;
3815;SDS011;1923;48.154;11.536;2024-01-06T03:49:29;11.03;;;5.73;;
3815;SDS011;1923;48.154;11.536;2024-01-06T03:51:57;13.00;;;6.97;;
3815;SDS011;1923;48.154;11.536;2024-01-06T03:54:26;12.67;;;7.10;;
3815;SDS011;1923;48.154;11.536;2024-01-06T03:56:54;14.90;;;7.77;;
3815;SDS011;1923;48.154;11.536;2024-01-06T03:59:22;16.03;;;7.70;;
3815;SDS011;1923;48.154;11.536;2024-01-06T04:01:50;13.10;;;7.03;;
3815;SDS011;1923;48.154;11.536;2024-01-06T04:04:18;12.90;;;6.43;;
3815;SDS011;1923;48.154;11.536;2024-01-06T04:06:47;10.27;;;6.40;;
3815;SDS011;1923;48.154;11.536;2024-01-06T04:09:15;14.07;;;6.60;;
3815;SDS011;1923;48.154;11.536;2024-01-06T04:11:44;13.50;;;6.60;;
3815;SDS011;1923;48.154;11.536;2024-01-06T04:14:12;13.00;;;6.47;;
3815;SDS011;1923;48.154;11.536;2024-01-06T04:16:40;9.47;;;4.60;;
3815;SDS011;1923;48.154;11.536;2024-01-06T04:19:08;7.00;;;3.80;;
3815;SDS011;1923;48.154;11.536;2024-01-06T04:21:38;6.17;;;3.30;;
3815;SDS011;1923;48.154;11.536;2024-01-06T04:24:08;7.77;;;3.47;;
3815;SDS011;1923;48.154;11.536;2024-01-06T04:26:36;8.20;;;3.30;;
3815;SDS011;1923;48.154;11.536;2024-01-06T04:29:04;6.70;;;4.00;;
3815;SDS011;1923;48.154;11.536;2024-01-06T04:31:32;6.17;;;2.83;;
3815;SDS011;1923;48.154;11.536;2024-01-06T04:34:00;4.50;;;2.67;;
3815;SDS011;1923;48.154;11.536;2024-01-06T04:36:29;3.87;;;2.50;;
3815;SDS011;1923;48.154;11.536;2024-01-06T04:38:57;2.23;;;1.57;;
3815;SDS011;1923;48.154;11.536;2024-01-06T04:41:27;2.83;;;1.70;;
3815;SDS011;1923;48.154;11.536;2024-01-06T04:43:55;1.57;;;1.43;;
3815;SDS011;1923;48.154;11.536;2024-01-06T04:46:23;2.10;;;1.57;;
3815;SDS011;1923;48.154;11.536;2024-01-06T04:48:51;2.33;;;1.60;;
3815;SDS011;1923;48.154;11.536;2024-01-06T04:51:19;2.57;;;1.60;;
3815;SDS011;1923;48.154;11.536;2024-01-06T04:53:47;1.07;;;0.97;;
3815;SDS011;1923;48.154;11.536;2024-01-06T04:56:15;2.43;;;1.43;;
3815;SDS011;1923;48.154;11.536;2024-01-06T04:58:45;1.63;;;1.30;;
3815;SDS011;1923;48.154;11.536;2024-01-06T05:01:13;2.23;;;1.10;;
3815;SDS011;1923;48.154;11.536;2024-01-06T05:03:42;1.10;;;1.00;;
3815;SDS011;1923;48.154;11.536;2024-01-06T05:06:10;1.00;;;0.80;;
3815;SDS011;1923;48.154;11.536;2024-01-06T05:08:38;1.97;;;1.00;;
3815;SDS011;1923;48.154;11.536;2024-01-06T05:11:11;1.73;;;1.13;;
3815;SDS011;1923;48.154;11.536;2024-01-06T05:13:39;2.43;;;1.80;;
3815;SDS011;1923;48.154;11.536;2024-01-06T05:16:09;1.80;;;1.20;;
3815;SDS011;1923;48.154;11.536;2024-01-06T05:18:37;5.07;;;1.23;;
3815;SDS011;1923;48.154;11.536;2024-01-06T05:21:05;2.10;;;1.10;;
3815;SDS011;1923;48.154;11.536;2024-01-06T05:23:33;2.27;;;1.30;;
3815;SDS011;1923;48.154;11.536;2024-01-06T05:26:01;3.47;;;1.97;;
3815;SDS011;1923;48.154;11.536;2024-01-06T05:28:30;1.63;;;1.03;;
3815;SDS011;1923;48.154;11.536;2024-01-06T05:30:58;1.43;;;0.63;;
3815;SDS011;1923;48.154;11.536;2024-01-06T05:33:27;1.70;;;1.10;;
3815;SDS011;1923;48.154;11.536;2024-01-06T05:35:58;1.23;;;0.93;;
3815;SDS011;1923;48.154;11.536;2024-01-06T05:38:26;1.23;;;0.77;;
3815;SDS011;1923;48.154;11.536;2024-01-06T05:40:54;1.00;;;0.73;;
3815;SDS011;1923;48.154;11.536;2024-01-06T05:43:23;1.03;;;0.90;;
3815;SDS011;1923;48.154;11.536;2024-01-06T05:45:51;1.73;;;1.30;;
3815;SDS011;1923;48.154;11.536;2024-01-06T05:48:19;1.47;;;1.00;;
3815;SDS011;1923;48.154;11.536;2024-01-06T05:50:49;3.30;;;1.60;;
3815;SDS011;1923;48.154;11.536;2024-01-06T05:53:17;3.83;;;2.30;;
3815;SDS011;1923;48.154;11.536;2024-01-06T05:55:45;3.30;;;2.50;;
3815;SDS011;1923;48.154;11.536;2024-01-06T05:58:13;10.87;;;4.60;;
3815;SDS011;1923;48.154;11.536;2024-01-06T06:00:41;21.47;;;10.83;;
3815;SDS011;1923;48.154;11.536;2024-01-06T06:03:10;18.13;;;6.53;;
3815;SDS011;1923;48.154;11.536;2024-01-06T06:05:39;4.17;;;2.53;;
3815;SDS011;1923;48.154;11.536;2024-01-06T06:08:08;13.10;;;4.63;;
3815;SDS011;1923;48.154;11.536;2024-01-06T06:10:36;16.43;;;7.20;;
3815;SDS011;1923;48.154;11.536;2024-01-06T06:13:18;4.07;;;2.60;;
3815;SDS011;1923;48.154;11.536;2024-01-06T06:15:46;4.03;;;2.53;;
3815;SDS011;1923;48.154;11.536;2024-01-06T06:18:14;5.47;;;3.10;;
3815;SDS011;1923;48.154;11.536;2024-01-06T06:20:42;3.93;;;2.60;;
3815;SDS011;1923;48.154;11.536;2024-01-06T06:23:12;4.43;;;3.03;;
3815;SDS011;1923;48.154;11.536;2024-01-06T06:25:40;7.10;;;3.47;;
3815;SDS011;1923;48.154;11.536;2024-01-06T06:28:09;5.70;;;3.17;;
3815;SDS011;1923;48.154;11.536;2024-01-06T06:30:36;5.47;;;3.50;;
3815;SDS011;1923;48.154;11.536;2024-01-06T06:33:05;7.40;;;3.90;;
3815;SDS011;1923;48.154;11.536;2024-01-06T06:35:33;7.83;;;3.80;;
3815;SDS011;1923;48.154;11.536;2024-01-06T06:38:01;6.40;;;3.60;;
3815;SDS011;1923;48.154;11.536;2024-01-06T06:40:30;6.10;;;3.30;;
3815;SDS011;1923;48.154;11.536;2024-01-06T06:42:59;5.60;;;3.90;;
3815;SDS011;1923;48.154;11.536;2024-01-06T06:45:27;5.63;;;3.70;;
3815;SDS011;1923;48.154;11.536;2024-01-06T06:47:55;8.00;;;4.00;;
3815;SDS011;1923;48.154;11.536;2024-01-06T06:50:23;5.47;;;3.60;;
3815;SDS011;1923;48.154;11.536;2024-01-06T06:52:51;4.47;;;4.00;;
3815;SDS011;1923;48.154;11.536;2024-01-06T06:55:19;5.70;;;3.07;;
3815;SDS011;1923;48.154;11.536;2024-01-06T06:57:49;4.00;;;2.70;;
3815;SDS011;1923;48.154;11.536;2024-01-06T07:00:17;5.20;;;3.33;;
3815;SDS011;1923;48.154;11.536;2024-01-06T07:02:46;4.80;;;2.90;;
3815;SDS011;1923;48.154;11.536;2024-01-06T07:05:14;5.70;;;3.17;;
3815;SDS011;1923;48.154;11.536;2024-01-06T07:07:43;5.20;;;3.47;;
3815;SDS011;1923;48.154;11.536;2024-01-06T07:10:13;3.80;;;2.80;;
3815;SDS011;1923;48.154;11.536;2024-01-06T07:12:41;4.57;;;2.70;;
3815;SDS011;1923;48.154;11.536;2024-01-06T07:15:10;8.37;;;4.23;;
3815;SDS011;1923;48.154;11.536;2024-01-06T07:17:39;5.57;;;3.23;;
3815;SDS011;1923;48.154;11.536;2024-01-06T07:20:07;6.77;;;3.20;;
3815;SDS011;1923;48.154;11.536;2024-01-06T07:22:35;6.13;;;4.30;;
3815;SDS011;1923;48.154;11.536;2024-01-06T07:25:04;6.23;;;3.60;;
3815;SDS011;1923;48.154;11.536;2024-01-06T07:27:33;5.63;;;3.53;;
3815;SDS011;1923;48.154;11.536;2024-01-06T07:30:02;4.67;;;3.70;;
3815;SDS011;1923;48.154;11.536;2024-01-06T07:32:31;4.33;;;3.20;;
3815;SDS011;1923;48.154;11.536;2024-01-06T07:35:00;5.10;;;3.43;;
3815;SDS011;1923;48.154;11.536;2024-01-06T07:37:33;4.77;;;3.43;;
3815;SDS011;1923;48.154;11.536;2024-01-06T07:40:01;5.17;;;3.53;;
3815;SDS011;1923;48.154;11.536;2024-01-06T07:42:29;4.80;;;3.30;;
3815;SDS011;1923;48.154;11.536;2024-01-06T07:44:58;5.80;;;3.57;;
3815;SDS011;1923;48.154;11.536;2024-01-06T07:47:26;8.80;;;5.20;;
3815;SDS011;1923;48.154;11.536;2024-01-06T07:49:55;4.60;;;3.90;;
3815;SDS011;1923;48.154;11.536;2024-01-06T07:52:24;8.10;;;4.30;;
3815;SDS011;1923;48.154;11.536;2024-01-06T07:54:52;12.53;;;4.43;;
3815;SDS011;1923;48.154;11.536;2024-01-06T07:57:20;9.67;;;3.90;;
3815;SDS011;1923;48.154;11.536;2024-01-06T07:59:48;8.40;;;4.30;;
3815;SDS011;1923;48.154;11.536;2024-01-06T08:02:17;8.07;;;4.70;;
3815;SDS011;1923;48.154;11.536;2024-01-06T08:04:45;8.97;;;5.33;;
3815;SDS011;1923;48.154;11.536;2024-01-06T08:07:15;9.70;;;4.20;;
3815;SDS011;1923;48.154;11.536;2024-01-06T08:09:43;9.50;;;4.90;;
3815;SDS011;1923;48.154;11.536;2024-01-06T08:12:11;10.20;;;4.67;;
3815;SDS011;1923;48.154;11.536;2024-01-06T08:14:39;5.67;;;3.83;;
3815;SDS011;1923;48.154;11.536;2024-01-06T08:17:07;5.53;;;4.20;;
3815;SDS011;1923;48.154;11.536;2024-01-06T08:19:35;9.83;;;3.70;;
3815;SDS011;1923;48.154;11.536;2024-01-06T08:22:04;5.83;;;2.90;;
3815;SDS011;1923;48.154;11.536;2024-01-06T08:24:33;4.27;;;2.70;;
3815;SDS011;1923;48.154;11.536;2024-01-06T08:27:01;8.20;;;2.70;;
3815;SDS011;1923;48.154;11.536;2024-01-06T08:29:29;7.93;;;2.67;;
3815;SDS011;1923;48.154;11.536;2024-01-06T08:31:57;7.93;;;3.70;;
3815;SDS011;1923;48.154;11.536;2024-01-06T08:34:26;5.93;;;2.77;;
3815;SDS011;1923;48.154;11.536;2024-01-06T08:36:58;6.30;;;2.30;;
3815;SDS011;1923;48.154;11.536;2024-01-06T08:39:26;6.07;;;2.57;;
3815;SDS011;1923;48.154;11.536;2024-01-06T08:41:56;3.03;;;2.00;;
3815;SDS011;1923;48.154;11.536;2024-01-06T08:44:27;4.70;;;2.43;;
3815;SDS011;1923;48.154;11.536;2024-01-06T08:46:55;4.73;;;2.50;;
3815;SDS011;1923;48.154;11.536;2024-01-06T08:49:23;6.83;;;2.00;;
3815;SDS011;1923;48.154;11.536;2024-01-06T08:51:51;3.47;;;1.70;;
3815;SDS011;1923;48.154;11.536;2024-01-06T08:54:20;2.33;;;1.93;;
3815;SDS011;1923;48.154;11.536;2024-01-06T08:56:48;3.73;;;2.00;;
3815;SDS011;1923;48.154;11.536;2024-01-06T08:59:17;3.20;;;2.37;;
3815;SDS011;1923;48.154;11.536;2024-01-06T09:01:46;5.70;;;2.53;;
3815;SDS011;1923;48.154;11.536;2024-01-06T09:04:15;5.70;;;2.60;;
3815;SDS011;1923;48.154;11.536;2024-01-06T09:06:44;7.63;;;3.07;;
3815;SDS011;1923;48.154;11.536;2024-01-06T09:09:13;5.93;;;2.53;;
3815;SDS011;1923;48.154;11.536;2024-01-06T09:11:41;5.67;;;2.60;;
3815;SDS011;1923;48.154;11.536;2024-01-06T09:14:10;5.20;;;2.40;;
3815;SDS011;1923;48.154;11.536;2024-01-06T09:16:40;5.30;;;2.50;;
3815;SDS011;1923;48.154;11.536;2024-01-06T09:19:08;3.57;;;2.43;;
3815;SDS011;1923;48.154;11.536;2024-01-06T09:21:36;4.20;;;2.77;;
3815;SDS011;1923;48.154;11.536;2024-01-06T09:24:04;6.13;;;2.93;;
3815;SDS011;1923;48.154;11.536;2024-01-06T09:26:33;4.60;;;2.40;;
3815;SDS011;1923;48.154;11.536;2024-01-06T09:29:01;7.50;;;3.57;;
3815;SDS011;1923;48.154;11.536;2024-01-06T09:31:30;3.73;;;3.00;;
3815;SDS011;1923;48.154;11.536;2024-01-06T09:34:00;8.30;;;3.10;;
3815;SDS011;1923;48.154;11.536;2024-01-06T09:36:30;6.30;;;2.80;;
3815;SDS011;1923;48.154;11.536;2024-01-06T09:38:59;6.67;;;2.23;;
3815;SDS011;1923;48.154;11.536;2024-01-06T09:41:27;4.27;;;2.90;;
3815;SDS011;1923;48.154;11.536;2024-01-06T09:43:55;4.50;;;2.37;;
3815;SDS011;1923;48.154;11.536;2024-01-06T09:46:23;5.03;;;2.50;;
3815;SDS011;1923;48.154;11.536;2024-01-06T09:48:53;8.50;;;3.57;;
3815;SDS011;1923;48.154;11.536;2024-01-06T09:51:23;5.33;;;3.33;;
3815;SDS011;1923;48.154;11.536;2024-01-06T09:53:56;5.40;;;3.00;;
3815;SDS011;1923;48.154;11.536;2024-01-06T09:56:26;4.60;;;3.00;;
3815;SDS011;1923;48.154;11.536;2024-01-06T09:58:55;7.30;;;3.13;;
3815;SDS011;1923;48.154;11.536;2024-01-06T10:01:23;4.43;;;2.93;;
3815;SDS011;1923;48.154;11.536;2024-01-06T10:03:51;4.87;;;2.87;;
3815;SDS011;1923;48.154;11.536;2024-01-06T10:06:19;6.60;;;3.00;;
3815;SDS011;1923;48.154;11.536;2024-01-06T10:08:49;4.23;;;3.27;;
3815;SDS011;1923;48.154;11.536;2024-01-06T10:11:18;9.30;;;3.10;;
3815;SDS011;1923;48.154;11.536;2024-01-06T10:13:48;6.43;;;3.47;;
3815;SDS011;1923;48.154;11.536;2024-01-06T10:16:17;5.80;;;2.90;;
3815;SDS011;1923;48.154;11.536;2024-01-06T10:18:45;5.27;;;3.23;;
3815;SDS011;1923;48.154;11.536;2024-01-06T10:21:19;4.80;;;2.90;;
3815;SDS011;1923;48.154;11.536;2024-01-06T10:23:50;5.87;;;3.63;;
3815;SDS011;1923;48.154;11.536;2024-01-06T10:26:18;4.60;;;3.47;;
3815;SDS011;1923;48.154;11.536;2024-01-06T10:28:47;6.27;;;3.70;;
3815;SDS011;1923;48.154;11.536;2024-01-06T10:31:16;7.53;;;3.80;;
3815;SDS011;1923;48.154;11.536;2024-01-06T10:33:45;5.20;;;3.60;;
3815;SDS011;1923;48.154;11.536;2024-01-06T10:36:15;9.50;;;4.33;;
3815;SDS011;1923;48.154;11.536;2024-01-06T10:38:44;4.20;;;3.37;;
3815;SDS011;1923;48.154;11.536;2024-01-06T10:41:13;7.33;;;3.47;;
3815;SDS011;1923;48.154;11.536;2024-01-06T10:43:43;5.30;;;3.03;;
3815;SDS011;1923;48.154;11.536;2024-01-06T10:46:13;8.20;;;3.20;;
3815;SDS011;1923;48.154;11.536;2024-01-06T10:48:42;7.63;;;3.03;;
3815;SDS011;1923;48.154;11.536;2024-01-06T10:51:13;9.70;;;3.10;;
3815;SDS011;1923;48.154;11.536;2024-01-06T10:53:42;4.93;;;3.30;;
3815;SDS011;1923;48.154;11.536;2024-01-06T10:56:11;4.80;;;3.60;;
3815;SDS011;1923;48.154;11.536;2024-01-06T10:58:43;7.10;;;3.73;;
3815;SDS011;1923;48.154;11.536;2024-01-06T11:01:14;7.80;;;3.50;;
3815;SDS011;1923;48.154;11.536;2024-01-06T11:03:48;6.37;;;3.20;;
3815;SDS011;1923;48.154;11.536;2024-01-06T11:06:17;4.97;;;2.63;;
3815;SDS011;1923;48.154;11.536;2024-01-06T11:08:48;6.40;;;4.03;;
3815;SDS011;1923;48.154;11.536;2024-01-06T11:11:19;6.13;;;3.27;;
3815;SDS011;1923;48.154;11.536;2024-01-06T11:13:51;8.40;;;3.43;;
3815;SDS011;1923;48.154;11.536;2024-01-06T11:16:35;5.57;;;3.43;;
3815;SDS011;1923;48.154;11.536;2024-01-06T11:19:41;7.77;;;4.23;;
3815;SDS011;1923;48.154;11.536;2024-01-06T11:22:24;7.67;;;3.30;;
3815;SDS011;1923;48.154;11.536;2024-01-06T11:24:56;5.93;;;3.80;;
3815;SDS011;1923;48.154;11.536;2024-01-06T11:27:31;5.67;;;4.00;;
3815;SDS011;1923;48.154;11.536;2024-01-06T11:30:00;6.80;;;3.70;;
3815;SDS011;1923;48.154;11.536;2024-01-06T11:32:33;5.97;;;3.57;;
3815;SDS011;1923;48.154;11.536;2024-01-06T11:35:08;4.70;;;3.43;;
3815;SDS011;1923;48.154;11.536;2024-01-06T11:37:37;8.73;;;3.40;;
3815;SDS011;1923;48.154;11.536;2024-01-06T11:40:22;8.13;;;4.00;;
3815;SDS011;1923;48.154;11.536;2024-01-06T11:42:59;4.90;;;3.90;;
3815;SDS011;1923;48.154;11.536;2024-01-06T11:45:30;7.50;;;4.20;;
3815;SDS011;1923;48.154;11.536;2024-01-06T11:47:59;5.97;;;3.60;;
3815;SDS011;1923;48.154;11.536;2024-01-06T11:50:31;5.63;;;4.60;;
3815;SDS011;1923;48.154;11.536;2024-01-06T11:53:00;5.00;;;3.40;;
3815;SDS011;1923;48.154;11.536;2024-01-06T11:55:29;7.13;;;4.10;;
3815;SDS011;1923;48.154;11.536;2024-01-06T11:57:58;9.23;;;4.07;;
3815;SDS011;1923;48.154;11.536;2024-01-06T12:00:30;8.50;;;5.13;;
3815;SDS011;1923;48.154;11.536;2024-01-06T12:02:58;8.25;;;4.82;;
3815;SDS011;1923;48.154;11.536;2024-01-06T12:05:28;8.70;;;4.97;;
3815;SDS011;1923;48.154;11.536;2024-01-06T12:07:58;8.20;;;5.40;;
3815;SDS011;1923;48.154;11.536;2024-01-06T12:10:27;8.40;;;5.53;;
3815;SDS011;1923;48.154;11.536;2024-01-06T12:12:56;9.00;;;5.00;;
3815;SDS011;1923;48.154;11.536;2024-01-06T12:15:26;10.10;;;5.33;;
3815;SDS011;1923;48.154;11.536;2024-01-06T12:17:54;9.53;;;5.20;;
3815;SDS011;1923;48.154;11.536;2024-01-06T12:20:23;8.60;;;5.30;;
3815;SDS011;1923;48.154;11.536;2024-01-06T12:22:52;7.60;;;5.33;;
3815;SDS011;1923;48.154;11.536;2024-01-06T12:25:22;8.93;;;6.00;;
3815;SDS011;1923;48.154;11.536;2024-01-06T12:27:51;10.00;;;6.00;;
3815;SDS011;1923;48.154;11.536;2024-01-06T12:30:21;8.60;;;5.60;;
3815;SDS011;1923;48.154;11.536;2024-01-06T12:32:51;10.20;;;6.20;;
3815;SDS011;1923;48.154;11.536;2024-01-06T12:35:19;11.07;;;6.10;;
3815;SDS011;1923;48.154;11.536;2024-01-06T12:37:48;7.07;;;5.13;;
3815;SDS011;1923;48.154;11.536;2024-01-06T12:40:16;8.80;;;5.63;;
3815;SDS011;1923;48.154;11.536;2024-01-06T12:42:47;10.10;;;7.60;;
3815;SDS011;1923;48.154;11.536;2024-01-06T12:45:15;10.00;;;5.97;;
3815;SDS011;1923;48.154;11.536;2024-01-06T12:47:44;10.20;;;5.83;;
3815;SDS011;1923;48.154;11.536;2024-01-06T12:50:12;10.97;;;4.97;;
3815;SDS011;1923;48.154;11.536;2024-01-06T12:52:40;9.27;;;4.70;;
3815;SDS011;1923;48.154;11.536;2024-01-06T12:55:08;11.70;;;4.97;;
3815;SDS011;1923;48.154;11.536;2024-01-06T12:57:37;9.60;;;4.53;;
3815;SDS011;1923;48.154;11.536;2024-01-06T13:00:07;7.20;;;4.17;;
3815;SDS011;1923;48.154;11.536;2024-01-06T13:02:38;10.03;;;5.10;;
3815;SDS011;1923;48.154;11.536;2024-01-06T13:05:07;11.70;;;4.63;;
3815;SDS011;1923;48.154;11.536;2024-01-06T13:07:36;4.90;;;3.63;;
3815;SDS011;1923;48.154;11.536;2024-01-06T13:10:06;7.70;;;4.00;;
3815;SDS011;1923;48.154;11.536;2024-01-06T13:12:35;7.13;;;5.80;;
3815;SDS011;1923;48.154;11.536;2024-01-06T13:15:04;7.23;;;4.20;;
3815;SDS011;1923;48.154;11.536;2024-01-06T13:17:40;7.30;;;3.78;;
3815;SDS011;1923;48.154;11.536;2024-01-06T13:20:09;7.63;;;3.70;;
3815;SDS011;1923;48.154;11.536;2024-01-06T13:22:37;4.30;;;3.40;;
3815;SDS011;1923;48.154;11.536;2024-01-06T13:25:07;13.00;;;4.40;;
3815;SDS011;1923;48.154;11.536;2024-01-06T13:27:36;8.75;;;3.90;;
3815;SDS011;1923;48.154;11.536;2024-01-06T13:30:09;6.50;;;3.53;;
3815;SDS011;1923;48.154;11.536;2024-01-06T13:32:43;6.93;;;4.03;;
3815;SDS011;1923;48.154;11.536;2024-01-06T13:35:11;7.17;;;4.20;;
3815;SDS011;1923;48.154;11.536;2024-01-06T13:37:39;7.50;;;4.23;;
3815;SDS011;1923;48.154;11.536;2024-01-06T13:40:10;8.13;;;3.90;;
3815;SDS011;1923;48.154;11.536;2024-01-06T13:42:39;10.20;;;4.20;;
3815;SDS011;1923;48.154;11.536;2024-01-06T13:45:09;7.27;;;3.97;;
3815;SDS011;1923;48.154;11.536;2024-01-06T13:47:37;8.17;;;4.77;;
3815;SDS011;1923;48.154;11.536;2024-01-06T13:50:08;12.00;;;4.27;;
3815;SDS011;1923;48.154;11.536;2024-01-06T13:52:36;7.82;;;4.63;;
3815;SDS011;1923;48.154;11.536;2024-01-06T13:55:05;12.03;;;4.50;;
3815;SDS011;1923;48.154;11.536;2024-01-06T13:57:34;7.43;;;4.33;;
3815;SDS011;1923;48.154;11.536;2024-01-06T14:00:03;8.23;;;4.33;;
3815;SDS011;1923;48.154;11.536;2024-01-06T14:02:33;7.70;;;4.77;;
3815;SDS011;1923;48.154;11.536;2024-01-06T14:05:02;7.40;;;5.20;;
3815;SDS011;1923;48.154;11.536;2024-01-06T14:07:30;6.80;;;4.73;;
3815;SDS011;1923;48.154;11.536;2024-01-06T14:10:00;15.00;;;5.40;;
3815;SDS011;1923;48.154;11.536;2024-01-06T14:12:30;10.38;;;5.60;;
3815;SDS011;1923;48.154;11.536;2024-01-06T14:14:59;7.90;;;4.53;;
3815;SDS011;1923;48.154;11.536;2024-01-06T14:17:27;8.20;;;4.70;;
3815;SDS011;1923;48.154;11.536;2024-01-06T14:19:57;7.50;;;4.93;;
3815;SDS011;1923;48.154;11.536;2024-01-06T14:22:26;9.70;;;5.97;;
3815;SDS011;1923;48.154;11.536;2024-01-06T14:24:54;10.93;;;6.43;;
3815;SDS011;1923;48.154;11.536;2024-01-06T14:27:22;10.37;;;6.10;;
3815;SDS011;1923;48.154;11.536;2024-01-06T14:29:52;8.37;;;5.47;;
3815;SDS011;1923;48.154;11.536;2024-01-06T14:32:21;9.37;;;6.20;;
3815;SDS011;1923;48.154;11.536;2024-01-06T14:34:50;11.83;;;6.07;;
3815;SDS011;1923;48.154;11.536;2024-01-06T14:37:20;12.30;;;6.33;;
3815;SDS011;1923;48.154;11.536;2024-01-06T14:39:48;12.30;;;6.20;;
3815;SDS011;1923;48.154;11.536;2024-01-06T14:42:16;11.70;;;6.03;;
3815;SDS011;1923;48.154;11.536;2024-01-06T14:44:45;13.50;;;6.30;;
3815;SDS011;1923;48.154;11.536;2024-01-06T14:47:13;9.40;;;6.10;;
3815;SDS011;1923;48.154;11.536;2024-01-06T14:49:41;12.80;;;6.57;;
3815;SDS011;1923;48.154;11.536;2024-01-06T14:52:10;10.87;;;6.57;;
3815;SDS011;1923;48.154;11.536;2024-01-06T14:54:39;9.73;;;6.00;;
3815;SDS011;1923;48.154;11.536;2024-01-06T14:57:07;9.93;;;6.53;;
3815;SDS011;1923;48.154;11.536;2024-01-06T14:59:35;8.37;;;5.70;;
3815;SDS011;1923;48.154;11.536;2024-01-06T15:02:04;8.90;;;6.47;;
3815;SDS011;1923;48.154;11.536;2024-01-06T15:04:34;8.20;;;5.63;;
3815;SDS011;1923;48.154;11.536;2024-01-06T15:07:04;9.80;;;6.17;;